createdAt,value
2023-05-18T07:24:23.065Z,23.50
2023-05-18T07:26:51.965Z,23.54
2023-05-18T07:29:21.048Z,23.71
2023-05-18T07:31:50.093Z,23.75
2023-05-18T07:34:19.075Z,23.63
2023-05-18T07:36:48.133Z,23.71
2023-05-18T07:39:19.808Z,23.87
2023-05-18T07:41:49.925Z,23.82
2023-05-18T07:44:18.916Z,23.90
2023-05-18T07:46:48.171Z,23.95
2023-05-18T07:49:17.406Z,24.03
2023-05-18T07:51:46.603Z,23.92
2023-05-18T07:54:16.356Z,24.18
2023-05-18T07:56:45.504Z,24.33
2023-05-18T07:59:14.493Z,24.04
2023-05-18T08:01:45.210Z,23.92
2023-05-18T08:04:14.555Z,23.91
2023-05-18T08:06:43.728Z,23.95
2023-05-18T08:09:13.124Z,23.98
2023-05-18T08:11:45.264Z,23.92
2023-05-18T08:14:14.659Z,23.81
2023-05-18T08:16:43.726Z,23.92
2023-05-18T08:19:12.584Z,24.06
2023-05-18T08:21:41.346Z,24.21
2023-05-18T08:24:10.512Z,24.06
2023-05-18T08:26:39.268Z,24.36
2023-05-18T08:29:10.587Z,24.67
2023-05-18T08:31:41.755Z,24.65
2023-05-18T08:34:10.587Z,24.74
2023-05-18T08:36:39.715Z,24.46
2023-05-18T08:39:09.617Z,24.84
2023-05-18T08:42:01.394Z,24.70
2023-05-18T08:45:12.003Z,24.86
2023-05-18T08:47:41.729Z,25.17
2023-05-18T08:50:13.921Z,25.46
2023-05-18T08:52:48.340Z,25.60
2023-05-18T08:55:18.876Z,25.88
2023-05-18T08:57:56.562Z,25.81
2023-05-18T09:00:26.008Z,25.72
2023-05-18T09:02:56.140Z,25.29
2023-05-18T09:05:25.022Z,25.12
2023-05-18T09:07:55.473Z,25.41
2023-05-18T09:10:24.681Z,25.59
2023-05-18T09:12:55.261Z,25.74
2023-05-18T09:15:25.587Z,26.01
2023-05-18T09:17:54.524Z,25.97
2023-05-18T09:20:26.524Z,26.01
2023-05-18T09:22:55.300Z,26.11
2023-05-18T09:25:25.468Z,26.05
2023-05-18T09:27:55.864Z,26.29
2023-05-18T09:30:25.624Z,26.08
2023-05-18T09:32:54.767Z,25.92
2023-05-18T09:35:25.730Z,25.64
2023-05-18T09:37:54.882Z,25.28
2023-05-18T09:40:30.242Z,25.53
2023-05-18T09:42:59.489Z,25.75
2023-05-18T09:45:28.969Z,25.73
2023-05-18T09:47:58.245Z,25.89
2023-05-18T09:50:27.751Z,25.64
2023-05-18T09:52:57.984Z,25.47
2023-05-18T09:55:26.889Z,25.60
2023-05-18T09:57:56.902Z,25.49
2023-05-18T10:00:27.106Z,25.38
2023-05-18T10:02:56.837Z,25.51
2023-05-18T10:05:28.075Z,25.57
2023-05-18T10:07:58.256Z,25.34
2023-05-18T10:10:32.331Z,25.59
2023-05-18T10:13:02.061Z,25.74
2023-05-18T10:15:31.076Z,26.00
2023-05-18T10:18:03.703Z,26.04
2023-05-18T10:20:33.056Z,25.99
2023-05-18T10:23:05.746Z,26.21
2023-05-18T10:25:36.365Z,26.51
2023-05-18T10:28:10.472Z,26.12
2023-05-18T10:30:44.018Z,26.17
2023-05-18T10:33:24.713Z,25.97
2023-05-18T10:35:58.693Z,26.07
2023-05-18T10:38:29.143Z,26.24
2023-05-18T10:41:00.556Z,26.47
2023-05-18T10:43:29.457Z,26.54
2023-05-18T10:46:02.768Z,26.80
2023-05-18T10:48:31.832Z,26.35
2023-05-18T10:51:01.153Z,26.23
2023-05-18T10:53:30.137Z,26.06
2023-05-18T10:55:58.895Z,26.20
2023-05-18T10:58:30.980Z,26.30
2023-05-18T11:01:01.502Z,26.99
2023-05-18T11:03:33.389Z,27.30
2023-05-18T11:06:15.102Z,27.77
2023-05-18T11:08:51.173Z,28.04
2023-05-18T11:11:26.000Z,27.98
2023-05-18T11:13:54.917Z,27.44
2023-05-18T11:16:34.914Z,27.02
2023-05-18T11:19:09.572Z,27.07
2023-05-18T11:21:41.603Z,26.49
2023-05-18T11:24:32.482Z,26.60
2023-05-18T11:27:12.419Z,26.32
2023-05-18T11:30:03.752Z,26.15
2023-05-18T11:32:37.321Z,26.23
2023-05-18T11:35:11.521Z,26.74
2023-05-18T11:37:41.499Z,27.24
2023-05-18T11:40:47.348Z,27.44
2023-05-18T11:43:25.151Z,28.10
2023-05-18T11:45:59.741Z,28.40
2023-05-18T11:48:31.954Z,28.99
2023-05-18T11:51:01.464Z,28.82
2023-05-18T11:53:30.677Z,29.02
2023-05-18T11:56:00.276Z,29.00
2023-05-18T11:58:32.119Z,28.62
2023-05-18T12:01:03.318Z,28.16
2023-05-18T12:03:33.354Z,27.61
2023-05-18T12:06:02.516Z,27.42
2023-05-18T12:08:31.659Z,27.54
2023-05-18T12:11:02.587Z,27.70
2023-05-18T12:13:32.048Z,28.04
2023-05-18T12:16:01.992Z,27.93
2023-05-18T12:18:35.414Z,28.36
2023-05-18T12:21:05.694Z,28.77
2023-05-18T12:23:38.593Z,29.02
2023-05-18T12:26:07.835Z,28.73
2023-05-18T12:28:36.922Z,28.42
2023-05-18T12:31:08.859Z,28.61
2023-05-18T12:33:38.259Z,28.85
2023-05-18T12:36:11.826Z,28.63
2023-05-18T12:38:41.510Z,28.82
2023-05-18T12:41:10.400Z,29.02
2023-05-18T12:43:39.342Z,28.79
2023-05-18T12:46:08.364Z,28.46
2023-05-18T12:48:45.534Z,28.51
2023-05-18T12:51:20.813Z,28.43
2023-05-18T12:53:50.916Z,28.51
2023-05-18T12:56:21.307Z,28.86
2023-05-18T12:59:04.936Z,28.67
2023-05-18T13:01:44.262Z,28.57
2023-05-18T13:04:13.821Z,28.65
2023-05-18T13:06:43.432Z,28.08
2023-05-18T13:09:14.009Z,27.75
2023-05-18T13:12:03.634Z,27.74
2023-05-18T13:14:38.792Z,27.64
2023-05-18T13:17:08.069Z,27.67
2023-05-18T13:19:37.043Z,27.84
2023-05-18T13:22:05.982Z,28.18
2023-05-18T13:24:34.901Z,28.17
2023-05-18T13:27:04.929Z,28.34
2023-05-18T13:29:34.696Z,28.49
2023-05-18T13:32:03.865Z,28.40
2023-05-18T13:34:32.809Z,28.70
2023-05-18T13:37:01.760Z,28.30
2023-05-18T13:39:30.532Z,28.48
2023-05-18T13:41:59.857Z,28.96
2023-05-18T13:44:28.666Z,29.79
2023-05-18T13:46:57.513Z,30.40
2023-05-18T13:49:26.411Z,30.75
2023-05-18T13:51:55.403Z,29.80
2023-05-18T13:54:24.187Z,28.95
2023-05-18T13:56:53.125Z,28.56
2023-05-18T13:59:22.753Z,28.02
2023-05-18T14:01:52.419Z,27.70
2023-05-18T14:04:21.697Z,27.74
2023-05-18T14:06:54.422Z,27.74
2023-05-18T14:09:23.461Z,27.53
2023-05-18T14:11:53.811Z,27.28
2023-05-18T14:14:23.719Z,27.38
2023-05-18T14:16:52.797Z,27.53
2023-05-18T14:19:21.681Z,27.29
2023-05-18T14:21:50.626Z,27.78
2023-05-18T14:24:19.999Z,28.70
2023-05-18T14:26:48.796Z,29.39
2023-05-18T14:29:17.527Z,30.30
2023-05-18T14:31:46.918Z,30.75
2023-05-18T14:34:15.873Z,30.42
2023-05-18T14:36:44.799Z,30.18
2023-05-18T14:39:13.723Z,30.13
2023-05-18T14:41:42.525Z,29.98
2023-05-18T14:44:11.512Z,29.32
2023-05-18T14:46:41.391Z,30.21
2023-05-18T14:49:10.173Z,31.26
2023-05-18T14:51:39.011Z,31.40
2023-05-18T14:54:07.843Z,31.64
2023-05-18T14:56:36.725Z,32.35
2023-05-18T14:59:05.661Z,31.86
2023-05-18T15:01:34.392Z,31.78
2023-05-18T15:04:03.373Z,31.80
2023-05-18T15:06:33.490Z,31.06
2023-05-18T15:09:02.162Z,30.62
2023-05-18T15:11:30.799Z,30.22
2023-05-18T15:13:59.544Z,29.98
2023-05-18T15:16:28.424Z,30.00
2023-05-18T15:18:57.233Z,30.22
2023-05-18T15:21:25.996Z,29.83
2023-05-18T15:23:54.651Z,29.64
2023-05-18T15:26:23.384Z,30.08
2023-05-18T15:28:52.117Z,29.79
2023-05-18T15:31:20.932Z,29.47
2023-05-18T15:33:49.715Z,28.85
2023-05-18T15:36:18.679Z,28.49
2023-05-18T15:38:47.593Z,28.37
2023-05-18T15:41:16.353Z,28.08
2023-05-18T15:43:46.856Z,27.77
2023-05-18T15:46:15.847Z,27.78
2023-05-18T15:48:44.769Z,27.30
2023-05-18T15:51:13.938Z,26.98
2023-05-18T15:53:43.429Z,26.86
2023-05-18T15:56:12.486Z,26.82
2023-05-18T15:58:41.581Z,26.68
2023-05-18T16:01:10.546Z,26.57
2023-05-18T16:03:39.527Z,26.50
2023-05-18T16:06:08.632Z,26.42
2023-05-18T16:08:37.668Z,26.39
2023-05-18T16:11:07.275Z,26.37
2023-05-18T16:13:36.231Z,26.27
2023-05-18T16:16:06.783Z,26.18
2023-05-18T16:18:35.628Z,26.04
2023-05-18T16:21:04.591Z,26.04
2023-05-18T16:23:33.325Z,25.98
2023-05-18T16:26:05.448Z,25.97
2023-05-18T16:28:34.741Z,25.85
2023-05-18T16:31:08.172Z,25.90
2023-05-18T16:33:38.306Z,26.12
2023-05-18T16:36:07.849Z,26.16
2023-05-18T16:38:37.759Z,25.98
2023-05-18T16:41:07.057Z,25.84
2023-05-18T16:43:36.149Z,25.87
2023-05-18T16:46:05.186Z,25.94
2023-05-18T16:48:34.003Z,25.82
2023-05-18T16:51:06.881Z,25.71
2023-05-18T16:53:36.467Z,25.62
2023-05-18T16:56:05.644Z,25.47
2023-05-18T16:58:34.326Z,25.38
2023-05-18T17:01:04.299Z,25.30
2023-05-18T17:03:38.673Z,25.11
2023-05-18T17:06:08.695Z,24.92
2023-05-18T17:08:37.588Z,24.69
2023-05-18T17:11:06.321Z,24.45
2023-05-18T17:13:35.097Z,24.27
2023-05-18T17:16:04.813Z,24.01
2023-05-18T17:18:33.586Z,23.76
2023-05-18T17:21:02.610Z,23.63
2023-05-18T17:23:31.945Z,23.39
2023-05-18T17:26:05.906Z,23.22
2023-05-18T17:28:35.218Z,23.05
2023-05-18T17:31:04.258Z,22.86
2023-05-18T17:33:33.036Z,22.70
2023-05-18T17:36:01.822Z,22.52
2023-05-18T17:38:31.022Z,22.35
2023-05-18T17:40:59.737Z,22.15
2023-05-18T17:43:28.520Z,21.95
2023-05-18T17:45:57.307Z,21.70
2023-05-18T17:48:26.064Z,21.54
2023-05-18T17:50:54.853Z,21.39
2023-05-18T17:53:23.630Z,21.22
2023-05-18T17:55:53.122Z,21.04
2023-05-18T17:58:21.989Z,20.86
2023-05-18T18:00:50.746Z,20.68
2023-05-18T18:03:21.117Z,20.46
2023-05-18T18:05:49.979Z,20.28
2023-05-18T18:08:18.778Z,20.13
2023-05-18T18:10:47.570Z,19.95
2023-05-18T18:13:16.302Z,19.84
2023-05-18T18:15:45.168Z,19.71
2023-05-18T18:18:14.076Z,19.56
2023-05-18T18:20:43.123Z,19.45
2023-05-18T18:23:11.979Z,19.39
2023-05-18T18:25:40.852Z,19.31
2023-05-18T18:28:14.704Z,19.24
2023-05-18T18:30:44.857Z,19.16
2023-05-18T18:33:14.781Z,19.15
2023-05-18T18:35:43.881Z,19.13
2023-05-18T18:38:15.734Z,19.10
2023-05-18T18:40:44.653Z,19.22
2023-05-18T18:43:13.702Z,19.21
2023-05-18T18:45:42.530Z,19.20
2023-05-18T18:48:11.426Z,19.21
2023-05-18T18:50:40.257Z,19.33
2023-05-18T18:53:08.979Z,19.44
2023-05-18T18:55:37.738Z,19.53
2023-05-18T18:58:06.466Z,19.51
2023-05-18T19:00:35.310Z,19.54
2023-05-18T19:03:04.374Z,19.52
2023-05-18T19:05:33.510Z,19.50
2023-05-18T19:08:02.658Z,19.50
2023-05-18T19:10:33.077Z,19.43
2023-05-18T19:13:05.831Z,19.34
2023-05-18T19:15:35.367Z,19.19
2023-05-18T19:18:04.761Z,19.19
2023-05-18T19:20:34.233Z,19.09
2023-05-18T19:23:04.911Z,19.08
2023-05-18T19:25:33.873Z,18.92
2023-05-18T19:28:02.829Z,18.85
2023-05-18T19:30:31.507Z,18.82
2023-05-18T19:33:00.684Z,18.71
2023-05-18T19:35:31.504Z,18.69
2023-05-18T19:38:02.506Z,18.60
2023-05-18T19:40:31.387Z,18.46
2023-05-18T19:43:01.742Z,18.43
2023-05-18T19:45:30.990Z,18.36
2023-05-18T19:48:00.231Z,18.28
2023-05-18T19:50:29.041Z,18.24
2023-05-18T19:52:57.745Z,18.17
2023-05-18T19:55:26.598Z,18.05
2023-05-18T19:57:55.347Z,18.02
2023-05-18T20:00:25.736Z,17.96
2023-05-18T20:02:54.602Z,17.94
2023-05-18T20:05:25.664Z,17.75
2023-05-18T20:07:54.496Z,17.75
2023-05-18T20:10:23.235Z,17.77
2023-05-18T20:12:52.360Z,17.69
2023-05-18T20:15:21.265Z,17.63
2023-05-18T20:17:50.128Z,17.51
2023-05-18T20:20:20.574Z,17.52
2023-05-18T20:22:49.618Z,17.43
2023-05-18T20:25:19.456Z,17.41
2023-05-18T20:27:48.938Z,17.40
2023-05-18T20:30:19.106Z,17.29
2023-05-18T20:32:48.508Z,17.17
2023-05-18T20:35:17.587Z,17.11
2023-05-18T20:37:46.962Z,17.04
2023-05-18T20:40:15.699Z,16.97
2023-05-18T20:42:44.450Z,16.91
2023-05-18T20:45:14.021Z,16.86
2023-05-18T20:47:42.970Z,16.85
2023-05-18T20:50:12.229Z,16.88
2023-05-18T20:52:41.245Z,16.89
2023-05-18T20:55:10.544Z,16.86
2023-05-18T20:57:40.278Z,16.84
2023-05-18T21:00:10.447Z,16.78
2023-05-18T21:02:48.735Z,16.68
2023-05-18T21:05:18.960Z,16.62
2023-05-18T21:07:48.950Z,16.60
2023-05-18T21:10:17.766Z,16.56
2023-05-18T21:12:46.495Z,16.51
2023-05-18T21:15:15.221Z,16.41
2023-05-18T21:17:44.040Z,16.37
2023-05-18T21:20:13.024Z,16.56
2023-05-18T21:22:41.734Z,16.60
2023-05-18T21:25:10.738Z,16.48
2023-05-18T21:27:40.193Z,16.41
2023-05-18T21:30:10.006Z,16.36
2023-05-18T21:32:38.834Z,16.19
2023-05-18T21:35:07.934Z,16.14
2023-05-18T21:37:37.591Z,16.10
2023-05-18T21:40:19.563Z,16.13
2023-05-18T21:42:48.485Z,16.07
2023-05-18T21:45:18.450Z,16.01
2023-05-18T21:47:49.312Z,15.97
2023-05-18T21:50:18.467Z,15.89
2023-05-18T21:52:47.364Z,15.73
2023-05-18T21:55:16.115Z,15.67
2023-05-18T21:57:44.900Z,15.68
2023-05-18T22:00:16.871Z,15.59
2023-05-18T22:02:45.501Z,15.52
2023-05-18T22:05:14.252Z,15.53
2023-05-18T22:07:43.071Z,15.48
2023-05-18T22:10:12.005Z,15.37
2023-05-18T22:12:43.674Z,15.34
2023-05-18T22:15:12.924Z,15.23
2023-05-18T22:17:41.734Z,15.31
2023-05-18T22:20:11.683Z,15.25
2023-05-18T22:22:41.354Z,15.09
2023-05-18T22:25:10.353Z,14.92
2023-05-18T22:27:39.261Z,14.81
2023-05-18T22:30:09.297Z,14.78
2023-05-18T22:32:38.782Z,14.70
2023-05-18T22:35:08.927Z,14.69
2023-05-18T22:37:37.901Z,14.67
2023-05-18T22:40:08.126Z,14.63
2023-05-18T22:42:36.912Z,14.60
2023-05-18T22:45:06.350Z,14.59
2023-05-18T22:47:35.369Z,14.58
2023-05-18T22:50:04.307Z,14.54
2023-05-18T22:52:35.210Z,14.49
2023-05-18T22:55:05.818Z,14.46
2023-05-18T22:57:34.538Z,14.37
2023-05-18T23:00:03.712Z,14.39
2023-05-18T23:02:32.522Z,14.36
2023-05-18T23:05:02.050Z,14.34
2023-05-18T23:07:36.370Z,14.31
2023-05-18T23:10:11.400Z,14.26
2023-05-18T23:12:40.497Z,14.26
2023-05-18T23:15:10.899Z,14.24
2023-05-18T23:17:39.751Z,14.19
2023-05-18T23:20:10.608Z,14.21
2023-05-18T23:23:35.325Z,14.16
2023-05-18T23:26:22.894Z,14.10
2023-05-18T23:29:10.988Z,14.01
2023-05-18T23:31:39.927Z,13.97
2023-05-18T23:34:09.070Z,13.94
2023-05-18T23:36:39.092Z,13.89
2023-05-18T23:39:08.339Z,13.85
2023-05-18T23:41:37.968Z,13.79
2023-05-18T23:44:07.623Z,13.77
2023-05-18T23:46:37.219Z,13.76
2023-05-18T23:49:06.627Z,13.74
2023-05-18T23:51:36.843Z,13.70
2023-05-18T23:54:07.544Z,13.65
2023-05-18T23:56:36.937Z,13.61
2023-05-18T23:59:06.996Z,13.58
